Time;durP1;ratioP1;P1;durP2;ratioP2;P2;SDS_P1;SDS_P2;PMS_P1;PMS_P2;Temp;Humidity;BMP_temperature;BMP_pressure;BME280_temperature;BME280_humidity;BME280_pressure;Samples;Min_cycle;Max_cycle;Signal;HPM_P1;HPM_P2
2023/07/17 00:00:20;;;;;;;1.92;0.50;;;17.60;80.50;;;;;;4864301;29;20056;-80
2023/07/17 00:02:47;;;;;;;1.75;0.57;;;17.60;80.70;;;;;;4864584;29;20064;-79
2023/07/17 00:05:14;;;;;;;2.55;0.50;;;17.60;80.90;;;;;;4865364;29;20108;-79
2023/07/17 00:07:41;;;;;;;1.33;0.55;;;17.60;81.00;;;;;;4849609;29;20044;-80
2023/07/17 00:10:11;;;;;;;1.55;0.45;;;17.60;81.10;;;;;;4855166;29;20518;-80
2023/07/17 00:12:39;;;;;;;1.05;0.40;;;17.60;81.20;;;;;;4864080;29;20061;-79
2023/07/17 00:15:08;;;;;;;1.50;0.35;;;17.60;81.30;;;;;;4864923;29;20070;-80
2023/07/17 00:17:36;;;;;;;1.33;0.43;;;17.60;81.50;;;;;;4880104;29;20104;-80
2023/07/17 00:20:08;;;;;;;3.25;0.40;;;17.70;81.60;;;;;;4885346;29;20377;-80
2023/07/17 00:22:35;;;;;;;1.23;0.40;;;17.70;81.70;;;;;;4848825;29;20052;-80
2023/07/17 00:25:04;;;;;;;1.30;0.35;;;17.60;81.70;;;;;;4864296;29;20045;-80
2023/07/17 00:27:31;;;;;;;2.33;0.75;;;17.60;81.90;;;;;;4879811;29;20040;-81
2023/07/17 00:29:58;;;;;;;2.30;0.65;;;17.60;82.00;;;;;;4879304;29;20065;-81
2023/07/17 00:32:25;;;;;;;1.52;0.55;;;17.60;82.00;;;;;;4848519;29;20072;-81
2023/07/17 00:34:52;;;;;;;3.75;0.60;;;17.60;82.10;;;;;;4864361;29;20097;-80
2023/07/17 00:37:19;;;;;;;1.83;0.65;;;17.60;82.20;;;;;;4849545;29;20060;-80
2023/07/17 00:39:47;;;;;;;1.83;0.75;;;17.60;82.20;;;;;;4863590;29;20049;-80
2023/07/17 00:42:15;;;;;;;2.92;0.52;;;17.60;82.30;;;;;;4863321;29;20497;-80
2023/07/17 00:44:42;;;;;;;2.08;0.60;;;17.60;82.40;;;;;;4839505;29;20048;-80
2023/07/17 00:47:10;;;;;;;1.63;0.43;;;17.60;82.50;;;;;;4848976;29;20055;-80
2023/07/17 00:49:40;;;;;;;1.92;0.47;;;17.50;82.60;;;;;;4849069;29;20568;-80
2023/07/17 00:52:10;;;;;;;3.92;0.50;;;17.50;82.80;;;;;;4850410;29;20056;-80
2023/07/17 00:54:40;;;;;;;2.55;0.50;;;17.50;82.90;;;;;;4862785;29;20139;-80
2023/07/17 00:57:09;;;;;;;2.55;0.70;;;17.40;83.00;;;;;;4863245;29;20078;-80
2023/07/17 00:59:37;;;;;;;1.58;0.52;;;17.40;83.20;;;;;;4862742;29;20048;-80
2023/07/17 01:02:05;;;;;;;1.40;0.60;;;17.30;83.30;;;;;;4877884;29;20060;-80
2023/07/17 01:04:32;;;;;;;2.47;0.90;;;17.30;83.50;;;;;;4847450;29;20497;-80
2023/07/17 01:07:00;;;;;;;1.92;0.70;;;17.20;83.60;;;;;;4848636;29;20056;-80
2023/07/17 01:09:28;;;;;;;1.73;0.60;;;17.20;83.70;;;;;;4878646;29;20059;-80
2023/07/17 01:11:55;;;;;;;2.17;0.85;;;17.20;83.90;;;;;;4862000;29;20105;-80
2023/07/17 01:14:22;;;;;;;1.38;0.52;;;17.10;84.00;;;;;;4878818;29;20041;-80
2023/07/17 01:16:49;;;;;;;3.33;0.50;;;17.20;84.10;;;;;;4847714;29;20052;-81
2023/07/17 01:19:17;;;;;;;2.05;0.70;;;17.10;84.20;;;;;;4863040;29;20126;-79
2023/07/17 01:21:51;;;;;;;2.65;0.60;;;17.10;84.30;;;;;;4846355;29;20465;-79
2023/07/17 01:24:19;;;;;;;1.95;1.00;;;17.10;84.30;;;;;;4878620;29;20075;-79
2023/07/17 01:26:47;;;;;;;2.45;0.65;;;17.10;84.50;;;;;;4877995;29;20063;-79
2023/07/17 01:29:14;;;;;;;1.65;0.70;;;17.00;84.60;;;;;;4878463;29;20136;-80
2023/07/17 01:31:42;;;;;;;2.05;0.80;;;17.00;84.60;;;;;;4845867;29;20120;-79
2023/07/17 01:34:10;;;;;;;1.85;1.00;;;17.00;84.70;;;;;;4877999;29;20484;-81
2023/07/17 01:36:37;;;;;;;2.92;0.98;;;17.10;84.70;;;;;;4878489;29;20044;-80
2023/07/17 01:39:04;;;;;;;2.72;0.98;;;17.10;84.70;;;;;;4863225;29;20060;-80
2023/07/17 01:41:32;;;;;;;3.22;0.93;;;17.10;84.80;;;;;;4845899;29;20052;-80
2023/07/17 01:43:59;;;;;;;2.70;1.05;;;17.10;84.80;;;;;;4862058;29;20053;-80
2023/07/17 01:46:26;;;;;;;3.22;0.70;;;17.00;85.00;;;;;;4847899;29;20063;-80
2023/07/17 01:48:53;;;;;;;2.15;0.95;;;16.90;85.00;;;;;;4862994;29;20053;-79
2023/07/17 01:51:20;;;;;;;2.58;0.65;;;16.90;85.20;;;;;;4861143;29;20060;-80
2023/07/17 01:53:47;;;;;;;3.55;1.02;;;16.90;85.40;;;;;;4860661;29;20065;-80
2023/07/17 01:56:14;;;;;;;2.03;0.60;;;16.80;85.40;;;;;;4859500;29;20045;-80
2023/07/17 01:58:41;;;;;;;2.70;0.90;;;16.80;85.60;;;;;;4844485;29;20159;-79
2023/07/17 02:01:08;;;;;;;2.63;0.85;;;16.80;85.80;;;;;;4872747;29;20100;-80
2023/07/17 02:03:36;;;;;;;2.55;0.77;;;16.80;85.90;;;;;;4832479;29;20045;-80
2023/07/17 02:06:04;;;;;;;1.63;0.60;;;16.70;85.90;;;;;;4879657;29;20067;-80
2023/07/17 02:08:33;;;;;;;1.65;0.60;;;16.70;86.10;;;;;;4860503;29;20591;-79
2023/07/17 02:11:00;;;;;;;1.60;0.68;;;16.70;86.20;;;;;;4842035;29;20104;-80
2023/07/17 02:13:28;;;;;;;2.38;0.80;;;16.60;86.20;;;;;;4860067;29;20508;-80
2023/07/17 02:15:56;;;;;;;1.80;0.70;;;16.60;86.40;;;;;;4877750;29;20634;-80
2023/07/17 02:18:24;;;;;;;2.03;0.73;;;16.60;86.40;;;;;;4862800;29;20071;-80
2023/07/17 02:20:51;;;;;;;1.92;0.68;;;16.60;86.60;;;;;;4845585;29;20060;-83
2023/07/17 02:23:18;;;;;;;1.80;0.60;;;16.60;86.70;;;;;;4862210;29;20128;-85
2023/07/17 02:25:45;;;;;;;2.42;0.85;;;16.50;86.70;;;;;;4862668;29;20091;-84
2023/07/17 02:28:14;;;;;;;1.33;0.60;;;16.50;86.80;;;;;;4862468;29;20040;-83
2023/07/17 02:30:42;;;;;;;3.15;0.85;;;16.50;86.90;;;;;;4861575;29;20080;-82
2023/07/17 02:33:09;;;;;;;1.83;0.77;;;16.50;87.00;;;;;;4877506;29;20052;-83
2023/07/17 02:35:36;;;;;;;1.55;0.50;;;16.50;87.00;;;;;;4862479;29;20167;-84
2023/07/17 02:38:06;;;;;;;3.05;0.70;;;16.40;86.90;;;;;;4867058;29;20087;-83
2023/07/17 02:40:33;;;;;;;2.45;0.73;;;16.40;87.00;;;;;;4850964;29;20050;-84
2023/07/17 02:43:00;;;;;;;3.72;0.90;;;16.40;87.30;;;;;;4876984;29;20072;-84
2023/07/17 02:45:28;;;;;;;1.77;0.98;;;16.40;87.40;;;;;;4854666;29;20060;-84
2023/07/17 02:47:55;;;;;;;2.05;0.82;;;16.30;87.40;;;;;;4861098;29;20509;-80
2023/07/17 02:50:22;;;;;;;2.42;0.60;;;16.30;87.50;;;;;;4883827;29;20087;-80
2023/07/17 02:52:49;;;;;;;2.75;0.88;;;16.30;87.60;;;;;;4846607;29;20067;-81
2023/07/17 02:55:16;;;;;;;3.17;0.85;;;16.30;88.40;;;;;;4856315;29;20057;-80
2023/07/17 02:57:44;;;;;;;3.60;1.10;;;16.20;87.90;;;;;;4862251;29;20087;-79
2023/07/17 03:00:12;;;;;;;1.92;0.70;;;16.20;88.00;;;;;;4852950;29;20100;-80
2023/07/17 03:02:40;;;;;;;2.20;0.60;;;16.20;88.10;;;;;;4876480;29;20508;-79
2023/07/17 03:05:10;;;;;;;2.38;0.82;;;16.10;88.10;;;;;;4862505;29;20048;-80
2023/07/17 03:07:41;;;;;;;1.73;0.63;;;16.10;88.20;;;;;;4861954;29;20127;-79
2023/07/17 03:10:10;;;;;;;1.88;0.80;;;16.10;88.20;;;;;;4874458;29;20076;-83
2023/07/17 03:12:37;;;;;;;2.80;1.05;;;16.00;88.30;;;;;;4860687;29;20408;-82
2023/07/17 03:15:05;;;;;;;2.15;0.80;;;16.00;88.40;;;;;;4861711;29;20390;-83
2023/07/17 03:17:33;;;;;;;2.15;1.00;;;16.00;88.50;;;;;;4861938;29;20468;-84
2023/07/17 03:20:05;;;;;;;1.77;0.60;;;16.00;88.50;;;;;;4861568;29;20921;-84
2023/07/17 03:22:32;;;;;;;2.70;0.82;;;15.90;88.50;;;;;;4861245;29;20386;-83
2023/07/17 03:24:59;;;;;;;1.77;0.60;;;15.90;88.60;;;;;;4846353;29;20700;-83
2023/07/17 03:27:26;;;;;;;1.80;0.70;;;15.90;89.30;;;;;;4861262;29;20063;-84
2023/07/17 03:29:53;;;;;;;2.28;0.80;;;15.90;88.80;;;;;;4845286;29;20057;-83
2023/07/17 03:32:20;;;;;;;3.80;0.93;;;15.90;88.90;;;;;;4837809;29;20147;-84
2023/07/17 03:34:47;;;;;;;2.10;0.85;;;15.90;89.00;;;;;;4861769;29;20060;-84
2023/07/17 03:37:14;;;;;;;2.25;0.85;;;15.80;89.10;;;;;;4861799;29;20057;-83
2023/07/17 03:39:41;;;;;;;2.03;0.52;;;15.80;89.10;;;;;;4837352;29;20369;-83
2023/07/17 03:42:12;;;;;;;2.25;1.33;;;15.80;89.10;;;;;;4884012;29;20361;-83
2023/07/17 03:44:40;;;;;;;2.30;0.85;;;15.80;89.20;;;;;;4845729;29;20041;-80
2023/07/17 03:47:07;;;;;;;3.50;0.90;;;15.80;89.20;;;;;;4861382;29;20041;-80
2023/07/17 03:49:37;;;;;;;3.83;1.00;;;15.80;89.30;;;;;;4876708;29;20048;-80
2023/07/17 03:52:04;;;;;;;1.73;0.60;;;15.80;89.30;;;;;;4883351;29;20049;-80
2023/07/17 03:54:33;;;;;;;1.58;0.65;;;15.80;89.30;;;;;;4861027;29;20072;-80
2023/07/17 03:57:00;;;;;;;2.90;0.73;;;15.70;89.30;;;;;;4901510;29;20060;-80
2023/07/17 03:59:29;;;;;;;1.23;0.60;;;15.80;89.30;;;;;;4845776;29;20112;-80
2023/07/17 04:01:56;;;;;;;2.92;0.70;;;15.80;89.30;;;;;;4844182;29;20056;-80
2023/07/17 04:04:23;;;;;;;3.15;0.80;;;15.70;89.30;;;;;;4843647;29;20580;-81
2023/07/17 04:06:51;;;;;;;1.52;0.80;;;15.70;89.30;;;;;;4858594;29;20066;-80
2023/07/17 04:09:18;;;;;;;1.13;0.60;;;15.70;89.30;;;;;;4843031;29;20051;-80
2023/07/17 04:11:46;;;;;;;2.67;0.80;;;15.80;89.30;;;;;;4856408;29;20067;-79
2023/07/17 04:14:17;;;;;;;1.65;0.65;;;15.80;89.30;;;;;;4859106;29;20063;-80
2023/07/17 04:16:44;;;;;;;3.72;0.75;;;15.70;89.30;;;;;;4858776;29;20413;-80
2023/07/17 04:19:12;;;;;;;1.63;0.60;;;15.80;89.30;;;;;;4844004;29;20570;-80
2023/07/17 04:21:39;;;;;;;2.20;0.80;;;15.80;89.30;;;;;;4840769;29;20105;-80
2023/07/17 04:24:06;;;;;;;1.85;0.77;;;15.80;89.30;;;;;;4842475;29;20048;-80
2023/07/17 04:26:42;;;;;;;2.55;0.70;;;15.70;89.30;;;;;;4873371;29;20052;-80
2023/07/17 04:29:10;;;;;;;3.45;1.00;;;15.80;89.50;;;;;;4841284;29;20041;-80
2023/07/17 04:31:38;;;;;;;2.60;1.10;;;15.80;89.30;;;;;;4855514;29;20528;-81
2023/07/17 04:34:05;;;;;;;4.47;1.15;;;15.80;89.30;;;;;;4843905;29;20048;-80
2023/07/17 04:36:32;;;;;;;3.75;1.02;;;15.80;89.50;;;;;;4873997;29;20438;-80
2023/07/17 04:39:00;;;;;;;2.90;0.80;;;15.80;89.30;;;;;;4851632;29;20056;-80
2023/07/17 04:41:28;;;;;;;4.45;0.90;;;15.80;89.30;;;;;;4876450;29;20052;-80
2023/07/17 04:43:55;;;;;;;3.35;0.75;;;15.80;89.30;;;;;;4863573;29;20067;-80
2023/07/17 04:46:23;;;;;;;5.50;1.42;;;15.80;89.30;;;;;;4848513;29;20497;-81
2023/07/17 04:48:50;;;;;;;4.13;1.40;;;15.90;89.50;;;;;;4848312;29;20063;-80
2023/07/17 04:51:17;;;;;;;3.33;1.40;;;15.90;89.60;;;;;;4882441;29;20052;-78
2023/07/17 04:53:45;;;;;;;4.43;1.17;;;15.90;89.40;;;;;;4848856;29;20052;-80
2023/07/17 04:56:12;;;;;;;3.33;1.35;;;15.90;89.30;;;;;;4848518;29;20044;-79
2023/07/17 04:58:39;;;;;;;3.95;1.35;;;15.90;89.40;;;;;;4848528;29;20128;-80
2023/07/17 05:01:06;;;;;;;4.00;1.33;;;15.90;89.30;;;;;;4859017;29;20048;-81
2023/07/17 05:03:36;;;;;;;4.45;1.20;;;16.00;89.20;;;;;;4848847;29;20049;-80
2023/07/17 05:06:03;;;;;;;4.97;1.58;;;16.00;89.10;;;;;;4849535;29;20041;-80
2023/07/17 05:08:30;;;;;;;5.25;1.38;;;16.10;89.20;;;;;;4848495;29;20497;-80
2023/07/17 05:11:02;;;;;;;4.03;1.50;;;16.10;89.20;;;;;;4845868;29;20053;-78
2023/07/17 05:13:33;;;;;;;5.07;1.60;;;16.10;88.90;;;;;;4879051;29;20048;-80
2023/07/17 05:16:01;;;;;;;3.15;1.08;;;16.20;88.90;;;;;;4863890;29;20072;-80
2023/07/17 05:18:29;;;;;;;3.25;1.35;;;16.20;88.70;;;;;;4864174;29;20047;-81
2023/07/17 05:20:56;;;;;;;5.43;1.40;;;16.20;88.80;;;;;;4846057;29;20569;-82
2023/07/17 05:23:24;;;;;;;4.50;2.08;;;16.30;88.70;;;;;;4848078;29;20446;-80
2023/07/17 05:25:54;;;;;;;5.20;1.55;;;16.30;88.50;;;;;;4848185;29;20057;-80
2023/07/17 05:28:23;;;;;;;4.90;1.98;;;16.40;88.50;;;;;;4863852;29;20056;-80
2023/07/17 05:30:54;;;;;;;7.68;2.50;;;16.40;88.40;;;;;;4876496;29;20148;-80
2023/07/17 05:33:22;;;;;;;7.55;2.13;;;16.40;88.20;;;;;;4878566;29;20484;-80
2023/07/17 05:35:50;;;;;;;5.43;2.67;;;16.50;88.10;;;;;;4863186;29;20086;-80
2023/07/17 05:38:19;;;;;;;7.78;2.33;;;16.50;88.00;;;;;;4863359;29;20152;-80
2023/07/17 05:40:47;;;;;;;8.43;2.55;;;16.60;88.50;;;;;;4884585;29;20532;-80
2023/07/17 05:43:15;;;;;;;8.38;3.08;;;16.60;87.70;;;;;;4862287;29;20040;-80
2023/07/17 05:45:53;;;;;;;7.55;3.25;;;16.70;87.60;;;;;;4850484;29;20082;-80
2023/07/17 05:48:20;;;;;;;7.60;2.55;;;16.80;87.40;;;;;;4848607;29;20437;-80
2023/07/17 05:50:47;;;;;;;6.72;3.05;;;16.80;87.10;;;;;;4861281;29;20450;-80
2023/07/17 05:53:15;;;;;;;7.07;2.80;;;16.90;87.00;;;;;;4846550;29;20047;-80
2023/07/17 05:55:43;;;;;;;7.00;3.28;;;17.00;87.30;;;;;;4878056;29;20049;-80
2023/07/17 05:58:11;;;;;;;7.43;3.13;;;17.10;86.50;;;;;;4882024;29;20045;-80
2023/07/17 06:00:38;;;;;;;9.93;2.60;;;17.10;86.30;;;;;;4846774;29;20145;-83
2023/07/17 06:03:06;;;;;;;6.60;2.95;;;17.20;86.20;;;;;;4846619;29;20143;-85
2023/07/17 06:05:39;;;;;;;9.20;2.67;;;17.20;86.10;;;;;;4862508;29;20532;-84
2023/07/17 06:08:08;;;;;;;6.78;2.85;;;17.30;85.80;;;;;;4862806;29;20060;-85
2023/07/17 06:10:36;;;;;;;8.90;3.65;;;17.30;85.60;;;;;;4846137;29;20390;-84
2023/07/17 06:13:03;;;;;;;7.25;3.50;;;17.50;85.50;;;;;;4860810;29;20048;-84
2023/07/17 06:15:30;;;;;;;6.32;2.90;;;17.50;85.20;;;;;;4862419;29;20056;-85
2023/07/17 06:17:57;;;;;;;7.53;3.80;;;17.60;85.10;;;;;;4862767;29;20060;-85
2023/07/17 06:20:24;;;;;;;9.13;3.28;;;17.60;84.90;;;;;;4845942;29;20056;-85
2023/07/17 06:22:51;;;;;;;9.85;4.30;;;17.60;84.70;;;;;;4861660;29;20063;-84
2023/07/17 06:25:19;;;;;;;10.45;3.95;;;17.60;84.60;;;;;;4846477;29;20135;-84
2023/07/17 06:27:46;;;;;;;10.25;4.10;;;17.60;84.50;;;;;;4862008;29;20048;-83
2023/07/17 06:30:14;;;;;;;11.35;4.38;;;17.70;84.40;;;;;;4844778;29;20056;-81
2023/07/17 06:32:41;;;;;;;10.07;4.65;;;17.70;84.30;;;;;;4848907;29;20410;-82
2023/07/17 06:35:08;;;;;;;11.38;4.72;;;17.70;84.00;;;;;;4828054;29;20060;-82
2023/07/17 06:37:36;;;;;;;12.13;4.60;;;17.80;84.30;;;;;;4834619;29;20534;-83
2023/07/17 06:40:06;;;;;;;8.98;4.25;;;17.80;83.80;;;;;;4880395;29;20565;-82
2023/07/17 06:42:33;;;;;;;11.65;4.05;;;17.90;83.70;;;;;;4843072;29;20135;-83
2023/07/17 06:45:00;;;;;;;9.52;3.95;;;18.00;83.50;;;;;;4828761;29;20482;-83
2023/07/17 06:47:28;;;;;;;11.45;4.82;;;18.10;83.40;;;;;;4843894;29;20053;-82
2023/07/17 06:50:05;;;;;;;7.53;3.25;;;18.20;83.10;;;;;;4844145;29;20675;-83
2023/07/17 06:52:32;;;;;;;11.23;4.28;;;18.10;83.20;;;;;;4864085;29;20143;-82
2023/07/17 06:54:59;;;;;;;9.13;4.03;;;18.20;83.10;;;;;;4843611;29;20394;-80
2023/07/17 06:57:29;;;;;;;10.07;4.00;;;18.30;82.80;;;;;;4863626;29;20082;-80
2023/07/17 06:59:56;;;;;;;11.52;3.85;;;18.50;82.40;;;;;;4856768;29;20120;-81
2023/07/17 07:02:22;;;;;;;9.55;4.25;;;18.50;82.10;;;;;;4841602;29;20061;-82
2023/07/17 07:04:49;;;;;;;7.18;3.60;;;18.60;81.90;;;;;;4826878;29;20093;-81
2023/07/17 07:07:16;;;;;;;8.55;4.05;;;18.60;81.60;;;;;;4828350;29;20575;-81
2023/07/17 07:09:45;;;;;;;7.05;3.38;;;18.80;81.30;;;;;;4862888;29;20105;-81
2023/07/17 07:12:13;;;;;;;8.20;3.85;;;19.00;81.00;;;;;;4841181;29;20053;-81
2023/07/17 07:14:41;;;;;;;10.43;3.50;;;19.00;80.80;;;;;;4842095;29;20059;-81
2023/07/17 07:17:08;;;;;;;8.07;3.70;;;19.00;80.70;;;;;;4866783;29;20057;-81
2023/07/17 07:19:35;;;;;;;7.32;3.15;;;19.00;80.90;;;;;;4843132;29;20068;-80
2023/07/17 07:22:03;;;;;;;9.35;4.63;;;19.10;80.90;;;;;;4826995;29;20101;-82
2023/07/17 07:24:30;;;;;;;10.70;3.40;;;19.20;80.20;;;;;;4842303;29;20494;-80
2023/07/17 07:26:57;;;;;;;8.45;3.45;;;19.10;80.20;;;;;;4831725;29;20056;-83
2023/07/17 07:29:24;;;;;;;5.13;2.75;;;19.10;80.20;;;;;;4865715;29;20081;-83
2023/07/17 07:31:51;;;;;;;6.03;2.97;;;19.10;80.40;;;;;;4846724;29;20090;-82
2023/07/17 07:34:18;;;;;;;12.15;3.22;;;19.20;80.10;;;;;;4845903;29;20057;-82
2023/07/17 07:36:46;;;;;;;11.50;3.80;;;19.20;79.80;;;;;;4885074;29;20053;-82
2023/07/17 07:39:13;;;;;;;6.90;2.90;;;19.20;80.00;;;;;;4852678;29;20052;-82
2023/07/17 07:41:40;;;;;;;7.60;2.70;;;19.20;80.20;;;;;;4879800;29;20056;-83
2023/07/17 07:44:07;;;;;;;7.43;3.03;;;19.40;80.00;;;;;;4845914;29;20045;-82
2023/07/17 07:46:38;;;;;;;12.90;3.30;;;19.60;79.40;;;;;;4848327;29;20060;-81
2023/07/17 07:49:05;;;;;;;9.13;4.55;;;19.80;78.40;;;;;;4876447;29;20074;-82
2023/07/17 07:51:32;;;;;;;7.38;2.92;;;19.70;77.50;;;;;;4850205;29;20500;-81
2023/07/17 07:54:00;;;;;;;6.90;3.58;;;19.70;77.70;;;;;;4831031;29;20068;-82
2023/07/17 07:56:27;;;;;;;10.10;3.15;;;19.80;77.30;;;;;;4846926;29;20048;-82
2023/07/17 07:58:54;;;;;;;7.43;3.97;;;19.80;77.00;;;;;;4861273;29;20052;-83
2023/07/17 08:01:21;;;;;;;8.63;3.80;;;19.70;76.50;;;;;;4842848;29;20084;-82
2023/07/17 08:03:48;;;;;;;6.47;3.35;;;19.60;77.10;;;;;;4860921;29;20041;-82
2023/07/17 08:06:15;;;;;;;8.20;3.35;;;19.70;77.20;;;;;;4861171;29;20060;-80
2023/07/17 08:08:43;;;;;;;6.93;2.85;;;19.80;76.40;;;;;;4846201;29;20044;-81
2023/07/17 08:11:10;;;;;;;8.82;3.28;;;19.80;76.10;;;;;;4880287;29;20045;-80
2023/07/17 08:13:37;;;;;;;7.30;3.08;;;19.70;75.30;;;;;;4859013;29;20100;-80
2023/07/17 08:16:04;;;;;;;5.50;2.28;;;19.70;75.50;;;;;;4848944;29;20555;-81
2023/07/17 08:18:31;;;;;;;7.97;3.20;;;19.80;75.30;;;;;;4871274;29;20064;-81
2023/07/17 08:20:58;;;;;;;7.75;2.45;;;19.90;74.90;;;;;;4863582;29;20131;-81
2023/07/17 08:23:26;;;;;;;6.35;2.50;;;20.20;74.90;;;;;;4863348;29;20086;-81
2023/07/17 08:25:53;;;;;;;9.82;3.30;;;20.50;74.10;;;;;;4879710;29;20044;-81
2023/07/17 08:28:21;;;;;;;7.50;2.83;;;20.50;73.20;;;;;;4849227;29;20053;-81
2023/07/17 08:30:50;;;;;;;4.38;2.45;;;20.30;73.00;;;;;;4863436;29;20095;-81
2023/07/17 08:33:18;;;;;;;5.15;2.40;;;20.40;73.10;;;;;;4847204;29;20065;-81
2023/07/17 08:35:45;;;;;;;4.82;1.92;;;20.60;72.70;;;;;;4845759;29;20053;-81
2023/07/17 08:38:12;;;;;;;6.78;2.20;;;20.90;72.50;;;;;;4829864;29;20053;-81
2023/07/17 08:40:39;;;;;;;7.25;2.47;;;20.90;72.00;;;;;;4844936;29;20044;-81
2023/07/17 08:43:07;;;;;;;4.53;1.90;;;20.90;72.10;;;;;;4844265;29;20518;-81
2023/07/17 08:45:36;;;;;;;6.60;2.75;;;20.80;71.90;;;;;;4867265;29;20064;-80
2023/07/17 08:48:04;;;;;;;7.03;2.90;;;21.00;71.90;;;;;;4845765;29;20517;-82
2023/07/17 08:50:33;;;;;;;6.88;2.42;;;21.10;70.70;;;;;;4829869;29;20053;-81
2023/07/17 08:53:00;;;;;;;5.45;2.25;;;21.20;70.80;;;;;;4844427;29;20084;-81
2023/07/17 08:55:31;;;;;;;5.80;2.20;;;21.30;70.10;;;;;;4845690;29;20064;-82
2023/07/17 08:58:03;;;;;;;5.75;2.08;;;21.20;69.40;;;;;;4845514;29;20049;-82
2023/07/17 09:00:31;;;;;;;4.68;1.73;;;21.20;69.70;;;;;;4860252;29;20162;-82
2023/07/17 09:02:58;;;;;;;5.05;1.85;;;21.10;70.10;;;;;;4858499;29;20430;-83
2023/07/17 09:05:25;;;;;;;4.18;1.73;;;21.00;70.20;;;;;;4877081;29;20109;-82
2023/07/17 09:07:52;;;;;;;4.13;1.38;;;20.80;70.70;;;;;;4815105;29;20068;-82
2023/07/17 09:10:23;;;;;;;8.98;2.70;;;20.70;70.60;;;;;;4829899;29;20049;-80
2023/07/17 09:12:54;;;;;;;5.03;2.10;;;20.80;69.70;;;;;;4843924;29;20045;-82
2023/07/17 09:15:24;;;;;;;6.40;1.98;;;21.00;69.60;;;;;;4876898;29;20313;-81
2023/07/17 09:17:52;;;;;;;10.10;2.40;;;21.30;68.70;;;;;;4844566;29;20132;-82
2023/07/17 09:20:20;;;;;;;4.68;2.25;;;21.40;68.10;;;;;;4843926;29;20546;-81
2023/07/17 09:22:48;;;;;;;3.35;1.45;;;21.50;68.00;;;;;;4827532;29;20053;-81
2023/07/17 09:25:16;;;;;;;3.80;1.35;;;21.60;68.20;;;;;;4860171;29;20049;-82
2023/07/17 09:27:47;;;;;;;6.50;1.80;;;21.50;68.30;;;;;;4844071;29;20064;-82
2023/07/17 09:30:24;;;;;;;3.92;1.40;;;21.40;68.10;;;;;;4849365;29;20058;-81
2023/07/17 09:32:51;;;;;;;3.70;1.40;;;21.30;68.90;;;;;;4858561;29;20056;-81
2023/07/17 09:35:19;;;;;;;6.07;2.13;;;21.10;68.70;;;;;;4822274;29;20101;-81
2023/07/17 09:37:47;;;;;;;6.35;1.63;;;21.10;68.50;;;;;;4869037;29;20045;-82
2023/07/17 09:40:18;;;;;;;4.10;1.65;;;21.20;68.20;;;;;;4844230;29;20136;-81
2023/07/17 09:42:53;;;;;;;5.30;1.85;;;21.50;67.90;;;;;;4843318;29;20047;-82
2023/07/17 09:45:20;;;;;;;4.95;1.55;;;21.70;67.00;;;;;;4859213;29;20152;-82
2023/07/17 09:47:51;;;;;;;5.45;1.77;;;21.80;66.20;;;;;;4829750;29;20458;-82
2023/07/17 09:50:20;;;;;;;3.77;1.20;;;21.80;66.30;;;;;;4859269;29;20049;-81
2023/07/17 09:52:50;;;;;;;3.70;1.42;;;21.60;66.30;;;;;;4874950;29;20622;-82
2023/07/17 09:55:24;;;;;;;5.50;1.65;;;21.40;66.80;;;;;;4864315;29;20079;-82
2023/07/17 09:57:52;;;;;;;3.28;1.00;;;21.30;67.40;;;;;;4854835;29;20053;-82
2023/07/17 10:00:24;;;;;;;6.68;1.60;;;21.40;67.50;;;;;;4828034;29;20113;-83
2023/07/17 10:03:04;;;;;;;2.60;1.08;;;21.70;66.50;;;;;;4827152;29;20135;-83
2023/07/17 10:05:33;;;;;;;2.25;0.70;;;21.80;66.60;;;;;;4859467;29;20053;-80
2023/07/17 10:08:09;;;;;;;1.90;0.60;;;21.80;66.90;;;;;;4830053;29;20136;-83
2023/07/17 10:10:38;;;;;;;2.13;0.80;;;21.80;67.00;;;;;;4847895;29;20108;-83
2023/07/17 10:13:07;;;;;;;3.40;1.00;;;21.70;67.40;;;;;;4858420;29;21333;-82
2023/07/17 10:15:36;;;;;;;2.83;0.98;;;21.50;67.70;;;;;;4867174;29;20140;-80
2023/07/17 10:18:08;;;;;;;4.50;1.00;;;21.40;68.10;;;;;;4859635;29;20057;-87
2023/07/17 10:20:38;;;;;;;2.58;0.80;;;21.40;68.00;;;;;;4836824;29;20105;-86
2023/07/17 10:23:24;;;;;;;2.50;0.90;;;21.30;68.30;;;;;;4881276;29;20060;-78
2023/07/17 10:25:53;;;;;;;3.60;0.95;;;21.20;68.10;;;;;;4863834;29;20060;-78
2023/07/17 10:28:31;;;;;;;3.53;1.00;;;21.20;67.90;;;;;;4844257;29;20041;-79
2023/07/17 10:31:08;;;;;;;6.28;1.60;;;21.40;66.40;;;;;;4858621;29;20041;-83
2023/07/17 10:33:37;;;;;;;3.92;1.20;;;21.50;65.80;;;;;;4892322;29;20079;-79
2023/07/17 10:36:05;;;;;;;2.83;1.30;;;21.80;65.90;;;;;;4878111;29;20056;-81
2023/07/17 10:38:36;;;;;;;2.70;1.13;;;22.20;65.40;;;;;;4862136;29;20052;-81
2023/07/17 10:41:13;;;;;;;;;;;22.60;65.10;;;;;;4847021;29;20079;-79
2023/07/17 10:43:53;;;;;;;3.20;1.33;;;22.70;63.60;;;;;;4876608;29;19923;-81
2023/07/17 10:46:40;;;;;;;5.90;1.60;;;23.10;63.80;;;;;;4877599;29;20047;-79
2023/07/17 10:49:08;;;;;;;3.53;1.05;;;23.10;63.10;;;;;;4855976;29;20058;-87
2023/07/17 10:51:37;;;;;;;3.00;0.77;;;22.60;60.70;;;;;;4882249;29;20148;-89
2023/07/17 10:54:07;;;;;;;1.65;0.52;;;21.50;63.10;;;;;;4878891;29;20075;-85
2023/07/17 10:56:34;;;;;;;3.70;0.95;;;20.40;66.20;;;;;;4856191;29;20524;-84
2023/07/17 10:59:01;;;;;;;2.13;0.60;;;19.70;68.60;;;;;;4862822;29;20056;-85
2023/07/17 11:01:30;;;;;;;1.92;0.38;;;19.20;69.90;;;;;;4852255;29;20067;-80
2023/07/17 11:03:58;;;;;;;0.75;0.30;;;19.00;70.70;;;;;;4862257;29;20049;-83
2023/07/17 11:06:26;;;;;;;2.95;0.82;;;18.90;71.00;;;;;;4893028;29;20553;-86
2023/07/17 11:08:56;;;;;;;1.67;0.30;;;18.80;71.30;;;;;;4877519;29;20048;-83
2023/07/17 11:11:23;;;;;;;3.00;0.40;;;19.00;71.10;;;;;;4845793;29;20051;-89
2023/07/17 11:13:52;;;;;;;1.65;0.30;;;19.30;70.60;;;;;;4846961;29;20063;-89
2023/07/17 11:16:21;;;;;;;2.53;0.30;;;19.70;69.70;;;;;;4878254;29;20733;-85
2023/07/17 11:18:50;;;;;;;1.35;0.57;;;20.10;69.20;;;;;;4894220;29;20052;-88
2023/07/17 11:21:19;;;;;;;0.60;0.20;;;20.40;68.70;;;;;;4851738;29;20097;-85
2023/07/17 11:23:54;;;;;;;1.90;0.50;;;20.70;68.10;;;;;;4892849;29;20040;-88
2023/07/17 11:26:32;;;;;;;2.47;0.60;;;20.90;68.00;;;;;;4878479;29;20096;-88
2023/07/17 11:29:01;;;;;;;1.20;0.32;;;21.00;67.90;;;;;;4878080;29;20049;-90
2023/07/17 11:31:34;;;;;;;1.42;0.50;;;21.20;67.60;;;;;;4830814;29;20063;-90
2023/07/17 11:34:10;;;;;;;1.75;0.50;;;21.20;67.40;;;;;;4878328;29;20065;-84
2023/07/17 11:36:41;;;;;;;1.23;0.35;;;21.40;67.00;;;;;;4862535;29;20053;-94
2023/07/17 11:39:10;;;;;;;;;;;21.50;67.00;;;;;;4878822;29;20044;-90
2023/07/17 11:41:48;;;;;;;3.83;0.60;;;21.50;67.10;;;;;;4874669;29;19931;-88
2023/07/17 11:44:20;;;;;;;3.47;0.55;;;21.50;67.00;;;;;;4860764;29;20458;-84
2023/07/17 11:46:47;;;;;;;2.05;0.60;;;21.80;66.70;;;;;;4862428;29;20055;-90
2023/07/17 11:49:14;;;;;;;1.58;0.57;;;22.00;66.40;;;;;;4849350;29;20072;-89
2023/07/17 11:51:42;;;;;;;2.08;0.75;;;22.20;66.20;;;;;;4885734;29;20056;-90
2023/07/17 11:54:12;;;;;;;2.15;0.50;;;22.30;66.00;;;;;;4866900;29;20064;-89
2023/07/17 11:56:43;;;;;;;2.85;0.88;;;22.50;65.70;;;;;;4851463;29;20541;-89
2023/07/17 11:59:18;;;;;;;2.58;0.77;;;22.50;65.30;;;;;;4865952;29;20065;-85
2023/07/17 12:01:45;;;;;;;2.28;0.85;;;22.30;65.80;;;;;;4865094;29;20068;-89
2023/07/17 12:04:38;;;;;;;2.75;0.70;;;22.00;66.40;;;;;;4867238;29;20147;-88
2023/07/17 12:07:06;;;;;;;2.55;0.57;;;21.70;67.00;;;;;;4858183;29;20152;-88
2023/07/17 12:09:33;;;;;;;2.67;0.70;;;21.60;67.40;;;;;;4865253;29;20052;-85
2023/07/17 12:12:00;;;;;;;3.00;0.77;;;21.60;67.40;;;;;;4853073;29;20116;-86
2023/07/17 12:14:27;;;;;;;1.98;0.70;;;21.50;67.20;;;;;;4865450;29;20446;-89
2023/07/17 12:16:54;;;;;;;1.95;0.50;;;21.50;67.40;;;;;;4856508;29;20053;-84
2023/07/17 12:19:21;;;;;;;3.08;1.00;;;21.70;67.50;;;;;;4865028;29;20104;-84
2023/07/17 12:21:48;;;;;;;3.75;1.05;;;21.70;67.60;;;;;;4853208;29;20052;-81
2023/07/17 12:24:16;;;;;;;6.40;1.27;;;21.70;67.70;;;;;;4862274;29;20056;-82
2023/07/17 12:26:43;;;;;;;3.70;1.30;;;21.90;67.80;;;;;;4864233;29;20052;-83
2023/07/17 12:29:10;;;;;;;3.72;1.02;;;22.20;67.80;;;;;;4848509;29;20680;-82
2023/07/17 12:31:37;;;;;;;2.75;0.90;;;22.50;67.00;;;;;;4876994;29;20063;-86
2023/07/17 12:34:05;;;;;;;3.38;1.35;;;22.50;67.00;;;;;;4849974;29;20474;-82
2023/07/17 12:36:32;;;;;;;3.30;1.00;;;22.20;67.30;;;;;;4849217;29;20055;-81
2023/07/17 12:39:15;;;;;;;4.70;1.48;;;22.30;67.60;;;;;;4887065;29;20060;-82
2023/07/17 12:41:46;;;;;;;4.80;1.67;;;22.80;66.70;;;;;;4861729;29;20521;-81
2023/07/17 12:44:13;;;;;;;4.72;1.42;;;23.40;65.70;;;;;;4883283;29;20053;-79
2023/07/17 12:46:40;;;;;;;3.80;1.20;;;23.90;64.80;;;;;;4848696;29;20143;-84
2023/07/17 12:49:07;;;;;;;3.33;1.10;;;24.10;64.20;;;;;;4879618;29;20056;-79
2023/07/17 12:51:35;;;;;;;4.00;1.40;;;24.00;64.30;;;;;;4846597;29;20564;-79
2023/07/17 12:54:02;;;;;;;2.58;0.90;;;23.70;64.30;;;;;;4896520;29;20166;-80